createdAt,value
2022-12-05T00:00:55.675Z,2.74
2022-12-05T00:03:22.523Z,2.75
2022-12-05T00:05:49.337Z,2.77
2022-12-05T00:08:15.894Z,2.77
2022-12-05T00:10:42.363Z,2.78
2022-12-05T00:13:08.899Z,2.78
2022-12-05T00:15:40.246Z,2.78
2022-12-05T00:18:07.411Z,2.80
2022-12-05T00:20:33.954Z,2.82
2022-12-05T00:23:00.334Z,2.81
2022-12-05T00:25:26.833Z,2.81
2022-12-05T00:27:53.206Z,2.83
2022-12-05T00:30:19.779Z,2.83
2022-12-05T00:32:46.592Z,2.84
2022-12-05T00:35:13.017Z,2.84
2022-12-05T00:37:39.389Z,2.87
2022-12-05T00:40:06.529Z,2.87
2022-12-05T00:42:33.048Z,2.89
2022-12-05T00:44:59.466Z,2.88
2022-12-05T00:47:25.891Z,2.89
2022-12-05T00:49:52.308Z,2.89
2022-12-05T00:52:18.817Z,2.89
2022-12-05T00:54:45.245Z,2.91
2022-12-05T00:57:11.790Z,2.91
2022-12-05T00:59:38.237Z,2.91
2022-12-05T01:02:04.731Z,2.92
2022-12-05T01:04:31.126Z,2.93
2022-12-05T01:06:58.809Z,2.93
2022-12-05T01:09:25.739Z,2.93
2022-12-05T01:11:52.537Z,2.93
2022-12-05T01:14:21.396Z,2.94
2022-12-05T01:16:49.338Z,2.93
2022-12-05T01:19:21.705Z,2.95
2022-12-05T01:21:48.735Z,2.94
2022-12-05T01:24:16.299Z,2.94
2022-12-05T01:26:43.647Z,2.95
2022-12-05T01:29:12.062Z,2.95
2022-12-05T01:31:39.423Z,2.95
2022-12-05T01:34:08.453Z,2.95
2022-12-05T01:36:35.005Z,2.96
2022-12-05T01:39:01.736Z,2.96
2022-12-05T01:41:31.888Z,2.96
2022-12-05T01:44:04.718Z,2.96
2022-12-05T01:46:36.396Z,2.96
2022-12-05T01:49:23.794Z,2.96
2022-12-05T01:51:53.050Z,2.97
2022-12-05T01:54:22.528Z,2.97
2022-12-05T01:56:53.492Z,2.97
2022-12-05T01:59:21.609Z,2.99
2022-12-05T02:01:48.316Z,2.99
2022-12-05T02:04:15.103Z,3.01
2022-12-05T02:06:41.621Z,2.99
2022-12-05T02:09:08.067Z,3.02
2022-12-05T02:11:41.750Z,3.02
2022-12-05T02:14:08.109Z,3.02
2022-12-05T02:16:51.794Z,3.02
2022-12-05T02:19:43.990Z,3.04
2022-12-05T02:22:27.335Z,3.03
2022-12-05T02:25:36.453Z,3.04
2022-12-05T02:28:15.226Z,3.05
2022-12-05T02:30:48.956Z,3.07
2022-12-05T02:33:15.311Z,3.07
2022-12-05T02:36:07.295Z,3.07
2022-12-05T02:38:45.378Z,3.10
2022-12-05T02:41:20.495Z,3.10
2022-12-05T02:44:02.135Z,3.11
2022-12-05T02:46:32.061Z,3.12
2022-12-05T02:49:08.034Z,3.13
2022-12-05T02:51:40.435Z,3.13
2022-12-05T02:54:12.222Z,3.14
2022-12-05T02:56:40.646Z,3.15
2022-12-05T02:59:07.058Z,3.15
2022-12-05T03:01:33.547Z,3.17
2022-12-05T03:04:02.625Z,3.18
2022-12-05T03:06:33.691Z,3.18
2022-12-05T03:09:06.891Z,3.20
2022-12-05T03:11:40.637Z,3.21
2022-12-05T03:14:12.896Z,3.22
2022-12-05T03:16:46.848Z,3.23
2022-12-05T03:19:55.604Z,3.23
2022-12-05T03:22:49.887Z,3.25
2022-12-05T03:25:17.314Z,3.26
2022-12-05T03:27:52.208Z,3.28
2022-12-05T03:30:22.141Z,3.28
2022-12-05T03:33:05.707Z,3.29
2022-12-05T03:35:53.020Z,3.29
2022-12-05T03:38:31.501Z,3.31
2022-12-05T03:41:15.556Z,3.31
2022-12-05T03:44:03.500Z,3.32
2022-12-05T03:46:55.997Z,3.33
2022-12-05T03:49:40.034Z,3.35
2022-12-05T03:52:12.932Z,3.35
2022-12-05T03:54:45.282Z,3.35
2022-12-05T03:57:19.446Z,3.37
2022-12-05T04:00:11.069Z,3.36
2022-12-05T04:03:00.381Z,3.38
2022-12-05T04:05:30.949Z,3.38
2022-12-05T04:08:08.043Z,3.39
2022-12-05T04:10:48.565Z,3.40
2022-12-05T04:13:28.092Z,3.40
2022-12-05T04:16:17.974Z,3.41
2022-12-05T04:18:53.922Z,3.42
2022-12-05T04:21:39.447Z,3.42
2022-12-05T04:24:48.816Z,3.42
2022-12-05T04:27:39.555Z,3.43
2022-12-05T04:30:10.507Z,3.44
2022-12-05T04:32:53.186Z,3.44
2022-12-05T04:35:25.857Z,3.44
2022-12-05T04:37:58.571Z,3.44
2022-12-05T04:40:54.673Z,3.44
2022-12-05T04:43:23.029Z,3.43
2022-12-05T04:45:52.104Z,3.44
2022-12-05T04:48:19.733Z,3.45
2022-12-05T04:50:49.243Z,3.45
2022-12-05T04:53:16.733Z,3.46
2022-12-05T04:55:48.780Z,3.47
2022-12-05T04:58:20.199Z,3.47
2022-12-05T05:01:15.269Z,3.49
2022-12-05T05:03:51.146Z,3.49
2022-12-05T05:06:17.814Z,3.50
2022-12-05T05:08:52.947Z,3.50
2022-12-05T05:11:25.968Z,3.50
2022-12-05T05:13:53.069Z,3.52
2022-12-05T05:16:26.125Z,3.52
2022-12-05T05:18:53.310Z,3.54
2022-12-05T05:21:34.943Z,3.54
2022-12-05T05:24:01.912Z,3.55
2022-12-05T05:26:29.887Z,3.55
2022-12-05T05:28:58.430Z,3.57
2022-12-05T05:31:25.150Z,3.58
2022-12-05T05:33:53.584Z,3.59
2022-12-05T05:36:21.712Z,3.60
2022-12-05T05:38:53.027Z,3.62
2022-12-05T05:41:22.531Z,3.62
2022-12-05T05:43:49.457Z,3.63
2022-12-05T05:46:18.172Z,3.63
2022-12-05T05:48:44.765Z,3.64
2022-12-05T05:51:13.060Z,3.67
2022-12-05T05:53:39.945Z,3.67
2022-12-05T05:56:09.162Z,3.69
2022-12-05T05:58:36.136Z,3.70
2022-12-05T06:01:09.851Z,3.70
2022-12-05T06:03:37.063Z,3.74
2022-12-05T06:06:06.928Z,3.74
2022-12-05T06:08:35.715Z,3.74
2022-12-05T06:11:21.631Z,3.76
2022-12-05T06:13:52.027Z,3.79
2022-12-05T06:16:21.232Z,3.80
2022-12-05T06:18:49.673Z,3.80
2022-12-05T06:21:16.758Z,3.82
2022-12-05T06:23:43.415Z,3.83
2022-12-05T06:26:12.324Z,3.82
2022-12-05T06:28:40.056Z,3.83
2022-12-05T06:31:10.906Z,3.84
2022-12-05T06:33:37.609Z,3.86
2022-12-05T06:36:11.156Z,3.88
2022-12-05T06:38:42.085Z,3.89
2022-12-05T06:41:14.952Z,3.90
2022-12-05T06:43:41.760Z,3.92
2022-12-05T06:46:10.454Z,3.93
2022-12-05T06:48:37.126Z,3.94
2022-12-05T06:51:03.951Z,3.96
2022-12-05T06:53:30.581Z,3.97
2022-12-05T06:56:01.065Z,3.98
2022-12-05T06:58:28.583Z,3.99
2022-12-05T07:01:14.648Z,4.00
2022-12-05T07:03:43.972Z,4.01
2022-12-05T07:06:11.378Z,4.03
2022-12-05T07:08:37.950Z,4.01
2022-12-05T07:11:04.441Z,4.04
2022-12-05T07:13:30.867Z,4.04
2022-12-05T07:15:59.040Z,4.06
2022-12-05T07:18:26.695Z,4.06
2022-12-05T07:21:15.934Z,4.08
2022-12-05T07:23:44.711Z,4.08
2022-12-05T07:26:14.057Z,4.09
2022-12-05T07:28:40.461Z,4.10
2022-12-05T07:31:09.703Z,4.11
2022-12-05T07:33:37.170Z,4.12
2022-12-05T07:36:09.757Z,4.13
2022-12-05T07:38:36.832Z,4.14
2022-12-05T07:41:14.017Z,4.14
2022-12-05T07:43:41.217Z,4.16
2022-12-05T07:46:11.350Z,4.17
2022-12-05T07:48:38.817Z,4.18
2022-12-05T07:51:07.254Z,4.18
2022-12-05T07:53:34.474Z,4.19
2022-12-05T07:56:02.975Z,4.21
2022-12-05T07:58:29.971Z,4.20
2022-12-05T08:00:58.388Z,4.21
2022-12-05T08:03:24.866Z,4.22
2022-12-05T08:05:51.317Z,4.23
2022-12-05T08:08:17.884Z,4.25
2022-12-05T08:10:44.319Z,4.27
2022-12-05T08:13:10.708Z,4.27
2022-12-05T08:15:37.123Z,4.29
2022-12-05T08:18:03.761Z,4.29
2022-12-05T08:20:30.584Z,4.31
2022-12-05T08:22:57.055Z,4.32
2022-12-05T08:25:23.626Z,4.33
2022-12-05T08:27:50.032Z,4.34
2022-12-05T08:30:16.858Z,4.35
2022-12-05T08:32:43.291Z,4.37
2022-12-05T08:35:10.186Z,4.37
2022-12-05T08:37:36.599Z,4.38
2022-12-05T08:40:04.588Z,4.39
2022-12-05T08:42:31.439Z,4.42
2022-12-05T08:44:58.084Z,4.43
2022-12-05T08:47:24.670Z,4.43
2022-12-05T08:49:51.067Z,4.44
2022-12-05T08:52:17.505Z,4.46
2022-12-05T08:54:43.901Z,4.48
2022-12-05T08:57:10.328Z,4.48
2022-12-05T08:59:36.677Z,4.50
2022-12-05T09:02:03.193Z,4.51
2022-12-05T09:04:29.732Z,4.52
2022-12-05T09:06:56.180Z,4.53
2022-12-05T09:09:22.726Z,4.55
2022-12-05T09:11:50.919Z,4.56
2022-12-05T09:14:18.235Z,4.57
2022-12-05T09:16:46.510Z,4.59
2022-12-05T09:19:20.596Z,4.60
2022-12-05T09:21:47.122Z,4.60
2022-12-05T09:24:14.740Z,4.61
2022-12-05T09:26:41.674Z,4.63
2022-12-05T09:29:15.730Z,4.64
2022-12-05T09:31:43.440Z,4.66
2022-12-05T09:34:10.492Z,4.67
2022-12-05T09:36:36.849Z,4.67
2022-12-05T09:39:06.251Z,4.69
2022-12-05T09:42:09.951Z,4.71
2022-12-05T09:44:45.814Z,4.71
2022-12-05T09:47:15.888Z,4.72
2022-12-05T09:49:50.063Z,4.72
2022-12-05T09:52:25.212Z,4.74
2022-12-05T09:54:53.436Z,4.76
2022-12-05T09:57:34.992Z,4.77
2022-12-05T10:00:05.074Z,4.77
2022-12-05T10:02:54.558Z,4.78
2022-12-05T10:05:38.141Z,4.80
2022-12-05T10:08:26.335Z,4.82
2022-12-05T10:11:20.387Z,4.82
2022-12-05T10:13:54.262Z,4.84
2022-12-05T10:16:34.768Z,4.84
2022-12-05T10:19:09.893Z,4.86
2022-12-05T10:21:52.380Z,4.88
2022-12-05T10:24:37.737Z,4.88
2022-12-05T10:27:19.182Z,4.90
2022-12-05T10:30:04.317Z,4.90
2022-12-05T10:32:48.101Z,4.92
2022-12-05T10:35:22.543Z,4.92
2022-12-05T10:37:58.109Z,4.95
2022-12-05T10:40:37.389Z,4.97
2022-12-05T10:43:08.877Z,5.00
2022-12-05T10:45:43.667Z,5.00
2022-12-05T10:48:15.922Z,5.01
2022-12-05T10:50:44.226Z,5.02
2022-12-05T10:53:18.670Z,5.02
2022-12-05T10:56:21.420Z,5.04
2022-12-05T10:58:34.278Z,5.05
2022-12-05T11:01:15.894Z,5.06
2022-12-05T11:03:43.730Z,5.06
2022-12-05T11:06:23.953Z,5.05
2022-12-05T11:09:14.640Z,5.05
2022-12-05T11:11:41.277Z,5.05
2022-12-05T11:14:26.217Z,5.06
2022-12-05T11:16:56.664Z,5.06
2022-12-05T11:19:34.167Z,5.07
2022-12-05T11:22:01.724Z,5.07
2022-12-05T11:24:35.353Z,5.07
2022-12-05T11:27:16.846Z,5.11
2022-12-05T11:30:00.369Z,5.11
2022-12-05T11:32:30.866Z,5.12
2022-12-05T11:35:26.053Z,5.14
2022-12-05T11:37:55.810Z,5.14
2022-12-05T11:40:38.342Z,5.15
2022-12-05T11:43:13.753Z,5.16
2022-12-05T11:46:05.128Z,5.16
2022-12-05T11:48:47.995Z,5.19
2022-12-05T11:51:52.645Z,5.22
2022-12-05T11:55:03.968Z,5.22
2022-12-05T11:58:01.513Z,5.21
2022-12-05T12:00:40.736Z,5.22
2022-12-05T12:03:19.512Z,5.22
2022-12-05T12:05:58.832Z,5.23
2022-12-05T12:08:27.505Z,5.25
2022-12-05T12:10:53.815Z,5.27
2022-12-05T12:13:47.814Z,5.30
2022-12-05T12:16:33.262Z,5.29
2022-12-05T12:19:22.597Z,5.29
2022-12-05T12:22:12.023Z,5.27
2022-12-05T12:24:44.469Z,5.30
2022-12-05T12:27:17.440Z,5.32
2022-12-05T12:30:08.776Z,5.33
2022-12-05T12:32:35.153Z,5.34
2022-12-05T12:35:16.893Z,5.37
2022-12-05T12:38:04.607Z,5.37
2022-12-05T12:40:39.049Z,5.34
2022-12-05T12:43:52.842Z,5.34
2022-12-05T12:46:44.268Z,5.32
2022-12-05T12:49:32.007Z,5.33
2022-12-05T12:52:04.468Z,5.31
2022-12-05T12:55:05.041Z,5.30
2022-12-05T12:57:47.045Z,5.32
2022-12-05T13:00:56.155Z,5.34
2022-12-05T13:03:36.438Z,5.34
2022-12-05T13:06:12.030Z,5.35
2022-12-05T13:08:54.143Z,5.37
2022-12-05T13:11:22.593Z,5.36
2022-12-05T13:13:53.919Z,5.38
2022-12-05T13:16:26.187Z,5.37
2022-12-05T13:18:55.508Z,5.36
2022-12-05T13:21:23.318Z,5.35
2022-12-05T13:23:59.155Z,5.36
2022-12-05T13:26:25.559Z,5.36
2022-12-05T13:29:00.921Z,5.32
2022-12-05T13:31:43.511Z,5.33
2022-12-05T13:34:34.154Z,5.31
2022-12-05T13:37:28.392Z,5.29
2022-12-05T13:40:15.614Z,5.28
2022-12-05T13:42:43.310Z,5.27
2022-12-05T13:45:15.696Z,5.25
2022-12-05T13:48:00.390Z,5.26
2022-12-05T13:50:32.743Z,5.23
2022-12-05T13:53:06.959Z,5.25
2022-12-05T13:55:36.850Z,5.25
2022-12-05T13:58:21.945Z,5.25
2022-12-05T14:00:52.689Z,5.23
2022-12-05T14:03:34.393Z,5.24
2022-12-05T14:06:00.898Z,5.24
2022-12-05T14:08:35.733Z,5.26
2022-12-05T14:11:02.432Z,5.25
2022-12-05T14:13:30.030Z,5.26
2022-12-05T14:16:25.359Z,5.25
2022-12-05T14:19:12.379Z,5.26
2022-12-05T14:21:45.498Z,5.26
2022-12-05T14:24:47.376Z,5.26
2022-12-05T14:27:27.119Z,5.27
2022-12-05T14:30:03.255Z,5.27
2022-12-05T14:32:33.741Z,5.27
2022-12-05T14:35:12.129Z,5.27
2022-12-05T14:37:49.751Z,5.27
2022-12-05T14:40:29.688Z,5.28
2022-12-05T14:42:59.927Z,5.28
2022-12-05T14:45:34.112Z,5.27
2022-12-05T14:48:03.513Z,5.28
2022-12-05T14:50:42.132Z,5.29
2022-12-05T14:53:20.659Z,5.30
2022-12-05T14:56:05.461Z,5.29
2022-12-05T14:58:52.001Z,5.27
2022-12-05T15:01:29.975Z,5.28
2022-12-05T15:04:06.187Z,5.27
2022-12-05T15:06:37.372Z,5.28
2022-12-05T15:09:36.065Z,5.27
2022-12-05T15:11:56.629Z,5.27
2022-12-05T15:14:31.317Z,5.26
2022-12-05T15:17:01.187Z,5.27
2022-12-05T15:19:33.361Z,5.26
2022-12-05T15:22:06.082Z,5.27
2022-12-05T15:24:38.034Z,5.27
2022-12-05T15:27:06.983Z,5.25
2022-12-05T15:29:33.808Z,5.25
2022-12-05T15:32:06.255Z,5.28
2022-12-05T15:34:59.900Z,5.25
2022-12-05T15:37:34.210Z,5.23
2022-12-05T15:40:09.507Z,5.24
2022-12-05T15:42:49.324Z,5.23
2022-12-05T15:45:23.205Z,5.24
2022-12-05T15:47:52.057Z,5.22
2022-12-05T15:50:25.275Z,5.23
2022-12-05T15:52:58.110Z,5.22
2022-12-05T15:55:24.578Z,5.23
2022-12-05T15:58:01.521Z,5.23
2022-12-05T16:00:29.184Z,5.23
2022-12-05T16:03:04.100Z,5.25
2022-12-05T16:05:35.718Z,5.24
2022-12-05T16:08:03.778Z,5.25
2022-12-05T16:10:30.914Z,5.25
2022-12-05T16:13:04.489Z,5.25
2022-12-05T16:15:31.085Z,5.23
2022-12-05T16:18:00.332Z,5.25
2022-12-05T16:20:34.441Z,5.24
2022-12-05T16:23:04.487Z,5.24
2022-12-05T16:25:36.481Z,5.24
2022-12-05T16:28:16.230Z,5.25
2022-12-05T16:31:03.392Z,5.24
2022-12-05T16:33:31.184Z,5.25
2022-12-05T16:36:08.539Z,5.26
2022-12-05T16:38:36.153Z,5.27
2022-12-05T16:41:05.963Z,5.28
2022-12-05T16:43:32.600Z,5.27
2022-12-05T16:46:28.151Z,5.28
2022-12-05T16:49:13.659Z,5.28
2022-12-05T16:51:42.257Z,5.29
2022-12-05T16:54:09.022Z,5.28
2022-12-05T16:56:35.873Z,5.29
2022-12-05T16:59:04.364Z,5.29
2022-12-05T17:01:35.587Z,5.29
2022-12-05T17:04:05.207Z,5.28
2022-12-05T17:06:31.576Z,5.28
2022-12-05T17:08:57.987Z,5.29
2022-12-05T17:11:31.005Z,5.29
2022-12-05T17:13:58.272Z,5.29
2022-12-05T17:16:26.624Z,5.30
2022-12-05T17:18:53.264Z,5.30
2022-12-05T17:21:24.279Z,5.29
2022-12-05T17:23:51.144Z,5.31
2022-12-05T17:26:19.741Z,5.30
2022-12-05T17:28:46.583Z,5.31
2022-12-05T17:31:16.743Z,5.29
2022-12-05T17:33:44.224Z,5.30
2022-12-05T17:36:10.841Z,5.31
2022-12-05T17:38:37.385Z,5.31
2022-12-05T17:41:07.079Z,5.30
2022-12-05T17:43:34.227Z,5.31
2022-12-05T17:46:01.724Z,5.32
2022-12-05T17:48:28.468Z,5.32
2022-12-05T17:50:57.768Z,5.32
2022-12-05T17:53:24.563Z,5.32
2022-12-05T17:55:51.407Z,5.33
2022-12-05T17:58:18.115Z,5.33
2022-12-05T18:00:45.563Z,5.33
2022-12-05T18:03:18.376Z,5.33
2022-12-05T18:05:45.557Z,5.34
2022-12-05T18:08:12.549Z,5.32
2022-12-05T18:10:45.944Z,5.32
2022-12-05T18:13:12.840Z,5.33
2022-12-05T18:15:43.003Z,5.35
2022-12-05T18:18:15.960Z,5.34
2022-12-05T18:20:42.903Z,5.34
2022-12-05T18:23:09.847Z,5.34
2022-12-05T18:25:36.244Z,5.34
2022-12-05T18:28:02.660Z,5.34
2022-12-05T18:30:29.347Z,5.34
2022-12-05T18:32:55.745Z,5.33
2022-12-05T18:35:40.186Z,5.34
2022-12-05T18:38:10.841Z,5.34
2022-12-05T18:40:37.455Z,5.35
2022-12-05T18:43:03.897Z,5.35
2022-12-05T18:45:31.176Z,5.34
2022-12-05T18:48:09.863Z,5.36
2022-12-05T18:50:36.633Z,5.36
2022-12-05T18:53:03.551Z,5.35
2022-12-05T18:55:57.795Z,5.35
2022-12-05T18:58:16.445Z,5.35
2022-12-05T19:00:42.875Z,5.32
2022-12-05T19:03:09.553Z,5.33
2022-12-05T19:05:36.367Z,5.32
2022-12-05T19:08:02.877Z,5.32
2022-12-05T19:10:29.387Z,5.32
2022-12-05T19:12:57.029Z,5.31
2022-12-05T19:15:23.798Z,5.32
2022-12-05T19:17:50.256Z,5.31
2022-12-05T19:20:16.654Z,5.32
2022-12-05T19:22:43.030Z,5.31
2022-12-05T19:25:09.578Z,5.31
2022-12-05T19:27:36.007Z,5.31
2022-12-05T19:30:07.988Z,5.31
2022-12-05T19:32:40.043Z,5.31
2022-12-05T19:35:07.529Z,5.31
2022-12-05T19:37:34.373Z,5.30
2022-12-05T19:40:01.074Z,5.28
2022-12-05T19:42:29.361Z,5.30
2022-12-05T19:44:55.913Z,5.28
2022-12-05T19:47:22.517Z,5.28
2022-12-05T19:49:49.073Z,5.28
2022-12-05T19:52:17.802Z,5.27
2022-12-05T19:54:45.182Z,5.28
2022-12-05T19:57:12.368Z,5.30
2022-12-05T19:59:38.794Z,5.29
2022-12-05T20:02:05.711Z,5.30
2022-12-05T20:04:32.458Z,5.29
2022-12-05T20:06:58.884Z,5.28
2022-12-05T20:09:25.453Z,5.29
2022-12-05T20:11:55.441Z,5.30
2022-12-05T20:14:24.368Z,5.29
2022-12-05T20:16:50.999Z,5.29
2022-12-05T20:19:17.568Z,5.29
2022-12-05T20:21:44.540Z,5.29
2022-12-05T20:24:11.780Z,5.27
2022-12-05T20:26:41.075Z,5.31
2022-12-05T20:29:08.259Z,5.30
2022-12-05T20:31:40.006Z,5.30
2022-12-05T20:34:09.423Z,5.32
2022-12-05T20:36:36.542Z,5.31
2022-12-05T20:39:29.672Z,5.31
2022-12-05T20:41:56.188Z,5.31
2022-12-05T20:44:22.637Z,5.30
2022-12-05T20:46:50.329Z,5.30
2022-12-05T20:49:17.360Z,5.29
2022-12-05T20:51:45.357Z,5.30
2022-12-05T20:54:18.293Z,5.30
2022-12-05T20:56:45.472Z,5.31
2022-12-05T20:59:13.156Z,5.31
2022-12-05T21:01:39.685Z,5.31
2022-12-05T21:04:07.837Z,5.30
2022-12-05T21:06:40.551Z,5.32
2022-12-05T21:09:15.297Z,5.31
2022-12-05T21:11:42.923Z,5.31
2022-12-05T21:14:09.358Z,5.32
2022-12-05T21:16:35.778Z,5.32
2022-12-05T21:19:02.201Z,5.31
2022-12-05T21:21:29.185Z,5.31
2022-12-05T21:24:00.975Z,5.30
2022-12-05T21:26:29.833Z,5.31
2022-12-05T21:28:56.748Z,5.31
2022-12-05T21:31:36.165Z,5.32
2022-12-05T21:34:06.057Z,5.34
2022-12-05T21:36:34.711Z,5.32
2022-12-05T21:39:02.228Z,5.32
2022-12-05T21:41:28.704Z,5.31
2022-12-05T21:43:56.036Z,5.32
2022-12-05T21:46:24.289Z,5.32
2022-12-05T21:48:50.785Z,5.32
2022-12-05T21:51:17.334Z,5.30
2022-12-05T21:53:43.824Z,5.31
2022-12-05T21:56:15.751Z,5.31
2022-12-05T21:58:43.813Z,5.31
2022-12-05T22:01:12.180Z,5.30
2022-12-05T22:03:38.890Z,5.31
2022-12-05T22:06:10.536Z,5.30
2022-12-05T22:08:38.296Z,5.32
2022-12-05T22:11:08.575Z,5.32
2022-12-05T22:13:35.368Z,5.32
2022-12-05T22:16:02.454Z,5.33
2022-12-05T22:18:29.499Z,5.33
2022-12-05T22:21:01.543Z,5.34
2022-12-05T22:23:28.561Z,5.33
2022-12-05T22:26:02.307Z,5.33
2022-12-05T22:28:29.309Z,5.35
2022-12-05T22:30:57.840Z,5.34
2022-12-05T22:33:25.161Z,5.33
2022-12-05T22:35:56.741Z,5.34
2022-12-05T22:38:24.221Z,5.35
2022-12-05T22:40:55.704Z,5.35
2022-12-05T22:43:23.495Z,5.34
2022-12-05T22:45:50.601Z,5.35
2022-12-05T22:48:17.600Z,5.36
2022-12-05T22:50:52.098Z,5.35
2022-12-05T22:53:21.090Z,5.35
2022-12-05T22:55:47.499Z,5.35
2022-12-05T22:58:14.674Z,5.33
2022-12-05T23:00:41.128Z,5.34
2022-12-05T23:03:07.685Z,5.34
2022-12-05T23:05:42.458Z,5.36
2022-12-05T23:08:10.169Z,5.35
2022-12-05T23:10:39.144Z,5.35
2022-12-05T23:13:09.138Z,5.35
2022-12-05T23:15:38.972Z,5.37
2022-12-05T23:18:05.628Z,5.37
2022-12-05T23:20:32.564Z,5.36
2022-12-05T23:22:58.990Z,5.36
2022-12-05T23:25:26.330Z,5.35
2022-12-05T23:27:52.784Z,5.36
2022-12-05T23:30:19.365Z,5.37
2022-12-05T23:32:45.878Z,5.36
2022-12-05T23:35:12.303Z,5.35
2022-12-05T23:37:38.775Z,5.35
2022-12-05T23:40:06.025Z,5.36
2022-12-05T23:42:32.461Z,5.35
2022-12-05T23:44:58.895Z,5.35
2022-12-05T23:47:25.743Z,5.35
2022-12-05T23:49:52.220Z,5.33
2022-12-05T23:52:18.708Z,5.35
2022-12-05T23:54:45.199Z,5.33
2022-12-05T23:57:17.274Z,5.35
2022-12-05T23:59:44.122Z,5.36
